Flight Track Log - Related Links

Times and Time Zones

All times are in EST time to prevent confusion due to time zone crossing. See the N888FM flight status page for this flight to view local times or setup timezone preferences in your user account.


Time Position Orientation Groundspeed Altitude Reporting Facility
EST Latitude Longitude Course Direction KTS MPH feet Rate Location/Type
Tue 02:53:21 PM 40.9167 -74.0500 303° West 226 260 2,000  Level New York TRACON
Tue 02:54:15 PM 40.9167 -74.1167 270° West 226 260 3,000 1,053 Climbing New York TRACON
Tue 02:55:15 PM 40.9167 -74.2000 270° West 232 267 4,000 857 Climbing New York TRACON
Tue 02:56:21 PM 40.9167 -74.2833 270° West 237 273 4,800 1,550 Climbing New York TRACON
Tue 02:57:15 PM 40.8667 -74.3333 217° Southwest 217 250 7,100 1,950 Climbing New York TRACON
Tue 02:58:00 PM 41.0392 -74.4859 303° West  Level FlightAware Approximate
Tue 02:58:21 PM 40.9000 -74.3833 311° West 232 267 8,700  Level New York TRACON
Tue 02:59:21 PM 40.9667 -74.4000 349° North 251 289 9,100 200 Climbing New York TRACON
Tue 03:00:21 PM 41.0000 -74.4667 304° West 240 276 9,100 -350 Level New York TRACON
Tue 03:01:21 PM 41.0500 -74.5333 315° West 250 288 8,400 -700 Descending New York TRACON
Tue 03:03:00 PM 41.1125 -74.6458 306° West  Level FlightAware Approximate
Tue 03:10:00 PM 41.3353 -75.1609 300° West  Level FlightAware Approximate
Tue 03:11:00 PM 41.3672 -75.2345 304° West  Level FlightAware Approximate
Tue 03:12:00 PM 41.4000 -75.3064 270° West  Level FlightAware Approximate
Tue 03:13:00 PM 41.4228 -75.3850 294° West  Level FlightAware Approximate
Tue 03:14:00 PM 41.4585 -75.4544 312° West  Level FlightAware Approximate
Tue 03:15:00 PM 41.4428 -75.5239 217° Southwest  Level FlightAware Approximate
Tue 03:16:00 PM 41.3993 -75.5846 236° Southwest  Level FlightAware Approximate
Tue 03:17:00 PM 41.3639 -75.6555 236° Southwest  Level FlightAware Approximate
Tue 03:18:00 PM 41.3333 -75.7167 236° Southwest  Level FlightAware Approximate
Tue 03:19:00 PM 41.3385 -75.7234 236° Southwest  Level Estimated
Tue 03:20:00 PM 41.3333 -75.7167 236° Southwest  Level FlightAware Approximate

Login

Don't have an account? Register now (free) for customized features, flight alerts, and more!